Time;durP1;ratioP1;P1;durP2;ratioP2;P2;SDS_P1;SDS_P2;PMS_P1;PMS_P2;Temp;Humidity;BMP_temperature;BMP_pressure;BME280_temperature;BME280_humidity;BME280_pressure;Samples;Min_cycle;Max_cycle;Signal;HPM_P1;HPM_P2
2023/01/31 00:01:43;;;;;;;7.03;2.20;;;4.60;99.90;;;;;;5114526;28;20842;-72
2023/01/31 00:04:15;;;;;;;11.83;2.60;;;4.60;99.90;;;;;;5105537;28;20548;-71
2023/01/31 00:06:49;;;;;;;9.00;2.63;;;4.60;99.90;;;;;;5101512;28;20482;-72
2023/01/31 00:09:21;;;;;;;10.60;3.50;;;4.60;99.90;;;;;;5103450;28;20573;-72
2023/01/31 00:11:55;;;;;;;10.43;2.90;;;4.60;99.90;;;;;;5104002;28;20475;-72
2023/01/31 00:14:24;;;;;;;8.83;2.47;;;4.50;99.90;;;;;;5112410;28;20491;-72
2023/01/31 00:16:52;;;;;;;6.87;1.83;;;4.50;99.90;;;;;;5111777;28;20532;-72
2023/01/31 00:19:21;;;;;;;7.50;2.20;;;4.50;99.90;;;;;;5110814;28;20903;-71
2023/01/31 00:21:52;;;;;;;9.30;2.37;;;4.50;99.90;;;;;;5112528;28;21444;-73
2023/01/31 00:24:27;;;;;;;8.27;2.07;;;4.40;99.90;;;;;;5106531;28;20979;-71
2023/01/31 00:27:03;;;;;;;9.50;2.00;;;4.40;99.90;;;;;;5104629;28;20468;-72
2023/01/31 00:29:35;;;;;;;2.53;1.53;;;4.40;99.90;;;;;;5103922;28;20494;-72
2023/01/31 00:32:03;;;;;;;5.30;1.97;;;4.40;99.90;;;;;;5107302;28;20468;-71
2023/01/31 00:34:31;;;;;;;5.47;1.80;;;4.40;99.90;;;;;;5108031;28;20563;-72
2023/01/31 00:37:02;;;;;;;7.73;1.87;;;4.40;99.90;;;;;;5109293;28;20479;-72
2023/01/31 00:39:31;;;;;;;5.63;1.63;;;4.40;99.90;;;;;;5100530;28;20888;-73
2023/01/31 00:41:59;;;;;;;6.77;1.67;;;4.40;99.90;;;;;;5111707;28;20499;-71
2023/01/31 00:44:31;;;;;;;8.63;1.93;;;4.50;99.90;;;;;;5109403;27;20463;-71
2023/01/31 00:47:04;;;;;;;6.50;2.43;;;4.50;99.90;;;;;;5109993;27;20467;-72
2023/01/31 00:49:36;;;;;;;6.33;1.63;;;4.60;99.90;;;;;;5110897;28;20544;-74
2023/01/31 00:52:05;;;;;;;9.37;2.57;;;4.60;99.90;;;;;;5114704;27;20463;-72
2023/01/31 00:54:47;;;;;;;;;;;;;;;;;;;;;
2023/01/31 00:57:16;;;;;;;7.03;2.10;;;4.60;99.90;;;;;;5104225;28;20472;-72
2023/01/31 00:59:47;;;;;;;7.93;2.13;;;4.50;99.90;;;;;;5086674;28;20496;-71
2023/01/31 01:02:19;;;;;;;9.63;1.93;;;4.40;99.90;;;;;;5094011;27;20474;-72
2023/01/31 01:04:55;;;;;;;6.20;3.00;;;4.30;99.90;;;;;;5104648;27;21057;-77
2023/01/31 01:07:23;;;;;;;7.17;1.90;;;4.20;99.90;;;;;;5111396;27;20474;-74
2023/01/31 01:09:53;;;;;;;5.73;1.73;;;4.20;99.90;;;;;;5106070;27;20487;-78
2023/01/31 01:12:23;;;;;;;6.53;1.63;;;4.10;99.90;;;;;;5113231;27;20498;-73
2023/01/31 01:14:54;;;;;;;5.50;2.33;;;4.00;99.90;;;;;;5116916;28;20495;-72
2023/01/31 01:17:26;;;;;;;6.23;1.73;;;4.00;99.90;;;;;;5108708;28;20468;-72
2023/01/31 01:20:06;;;;;;;;;;;;;;;;;;;;;
2023/01/31 01:22:36;;;;;;;3.43;1.33;;;3.90;99.90;;;;;;5108800;28;20491;-72
2023/01/31 01:25:11;;;;;;;7.53;2.27;;;3.90;99.90;;;;;;5113042;27;20532;-72
2023/01/31 01:27:40;;;;;;;4.67;1.80;;;3.80;99.90;;;;;;5109828;28;20463;-76
2023/01/31 01:30:10;;;;;;;4.27;2.73;;;3.80;99.90;;;;;;5099847;27;20958;-72
2023/01/31 01:32:45;;;;;;;5.33;1.60;;;3.80;99.90;;;;;;5109645;27;20459;-72
2023/01/31 01:35:15;;;;;;;6.93;2.13;;;3.80;99.90;;;;;;5113494;27;20615;-71
2023/01/31 01:37:54;;;;;;;7.47;1.53;;;3.70;99.90;;;;;;5106832;27;20491;-74
2023/01/31 01:40:25;;;;;;;5.70;1.50;;;3.70;99.90;;;;;;5101607;27;21086;-72
2023/01/31 01:42:55;;;;;;;5.87;2.20;;;3.70;99.90;;;;;;5103831;27;20521;-72
2023/01/31 01:45:25;;;;;;;4.27;2.30;;;3.60;99.90;;;;;;5107347;28;20483;-73
2023/01/31 01:48:03;;;;;;;3.10;1.47;;;3.60;99.90;;;;;;5110556;27;20494;-73
2023/01/31 01:50:45;;;;;;;5.60;1.97;;;3.60;99.90;;;;;;5111343;28;20504;-72
2023/01/31 01:53:18;;;;;;;5.17;1.73;;;3.60;99.90;;;;;;5106488;28;20479;-73
2023/01/31 01:55:53;;;;;;;5.60;1.80;;;3.60;99.90;;;;;;5108458;28;20816;-71
2023/01/31 01:58:29;;;;;;;8.57;2.10;;;3.60;99.90;;;;;;5112596;28;20559;-72
2023/01/31 02:01:00;;;;;;;8.23;2.20;;;3.60;99.90;;;;;;5106706;28;20488;-72
2023/01/31 02:03:35;;;;;;;10.57;2.50;;;3.60;99.90;;;;;;5096974;28;20456;-71
2023/01/31 02:06:07;;;;;;;20.50;3.47;;;3.60;99.90;;;;;;5114382;28;20472;-71
2023/01/31 02:08:37;;;;;;;8.67;2.77;;;3.60;99.90;;;;;;5108468;27;22248;-72
2023/01/31 02:11:13;;;;;;;7.90;2.30;;;3.60;99.90;;;;;;5107249;22;20505;-73
2023/01/31 02:13:49;;;;;;;12.33;2.60;;;3.60;99.90;;;;;;5068569;28;20937;-72
2023/01/31 02:16:18;;;;;;;6.60;3.10;;;3.60;99.90;;;;;;5065791;28;20491;-72
2023/01/31 02:18:50;;;;;;;10.40;2.53;;;3.70;99.90;;;;;;5065481;28;20549;-72
2023/01/31 02:22:00;;;;;;;8.73;2.87;;;3.70;99.90;;;;;;5059152;28;20863;-72
2023/01/31 02:25:03;;;;;;;15.87;3.23;;;3.80;99.90;;;;;;5038377;28;20473;-72
2023/01/31 02:28:01;;;;;;;12.07;2.70;;;3.80;99.90;;;;;;5038226;28;20950;-72
2023/01/31 02:31:00;;;;;;;6.93;2.50;;;3.80;99.90;;;;;;5040614;28;21004;-72
2023/01/31 02:33:37;;;;;;;6.60;2.63;;;3.90;99.90;;;;;;5035565;28;20469;-73
2023/01/31 02:36:19;;;;;;;10.53;2.67;;;3.90;99.90;;;;;;5042265;28;21078;-73
2023/01/31 02:39:03;;;;;;;7.47;2.27;;;3.90;99.90;;;;;;5037516;28;20511;-71
2023/01/31 02:41:43;;;;;;;9.67;2.20;;;3.90;99.90;;;;;;5042909;28;20493;-72
2023/01/31 02:47:11;;;;;;;8.37;2.10;;;4.00;99.90;;;;;;5043526;28;20516;-73
2023/01/31 02:49:52;;;;;;;4.57;2.37;;;4.00;99.90;;;;;;5039412;28;20486;-72
2023/01/31 02:52:28;;;;;;;9.27;2.20;;;4.00;99.90;;;;;;5031778;28;20707;-73
2023/01/31 02:57:53;;;;;;;7.10;2.10;;;4.00;99.90;;;;;;5043035;28;20466;-74
2023/01/31 03:00:25;;;;;;;5.80;2.23;;;4.00;99.90;;;;;;5038773;28;20501;-72
2023/01/31 03:02:55;;;;;;;7.27;2.23;;;4.00;99.90;;;;;;5037581;28;20470;-73
2023/01/31 03:05:24;;;;;;;7.53;1.93;;;4.00;99.90;;;;;;5034701;28;20516;-72
2023/01/31 03:08:00;;;;;;;6.87;1.90;;;4.00;99.90;;;;;;5041744;28;20462;-72
2023/01/31 03:10:54;;;;;;;6.90;2.00;;;4.00;99.90;;;;;;5034849;28;20502;-73
2023/01/31 03:13:44;;;;;;;7.30;1.63;;;4.00;99.90;;;;;;5039552;28;20471;-72
2023/01/31 03:19:25;;;;;;;9.40;2.03;;;4.00;99.90;;;;;;5044265;28;20489;-73
2023/01/31 03:22:06;;;;;;;8.63;1.93;;;4.00;99.90;;;;;;5038987;28;21004;-74
2023/01/31 03:24:41;;;;;;;8.53;1.90;;;4.00;99.90;;;;;;5040766;28;20485;-73
2023/01/31 03:27:13;;;;;;;7.07;1.80;;;4.00;99.90;;;;;;5043463;28;20473;-73
2023/01/31 03:29:42;;;;;;;7.13;2.23;;;4.00;99.90;;;;;;5040167;28;20478;-74
2023/01/31 03:32:16;;;;;;;7.30;2.07;;;4.00;99.90;;;;;;5039738;28;20490;-73
2023/01/31 03:34:53;;;;;;;5.90;1.67;;;4.00;99.90;;;;;;5045300;28;20493;-72
2023/01/31 03:37:34;;;;;;;7.23;1.90;;;4.00;99.90;;;;;;5045235;28;20493;-72
2023/01/31 03:40:13;;;;;;;8.23;1.90;;;4.00;99.90;;;;;;5037614;28;20494;-72
2023/01/31 03:42:50;;;;;;;9.37;1.87;;;4.00;99.90;;;;;;5042310;28;20474;-73
2023/01/31 03:45:27;;;;;;;6.03;1.93;;;3.90;99.90;;;;;;5044081;28;20950;-72
2023/01/31 03:47:58;;;;;;;6.67;2.00;;;3.90;99.90;;;;;;5044359;28;20474;-73
2023/01/31 03:50:28;;;;;;;5.17;1.87;;;3.90;99.90;;;;;;5042184;28;20500;-72
2023/01/31 03:53:05;;;;;;;10.67;3.50;;;3.90;99.90;;;;;;5040612;28;20970;-72
2023/01/31 03:55:42;;;;;;;10.13;2.93;;;3.90;99.90;;;;;;5036646;28;20475;-72
2023/01/31 03:58:16;;;;;;;8.50;2.77;;;4.00;99.90;;;;;;5037772;28;20976;-73
2023/01/31 04:00:45;;;;;;;10.40;3.20;;;4.00;99.90;;;;;;5037486;28;20499;-73
2023/01/31 04:03:22;;;;;;;7.13;2.87;;;4.00;99.90;;;;;;5042613;28;20836;-73
2023/01/31 04:06:04;;;;;;;6.57;2.87;;;4.00;99.90;;;;;;5042682;28;20557;-73
2023/01/31 04:08:34;;;;;;;8.60;2.90;;;4.00;99.90;;;;;;5033610;28;20486;-74
2023/01/31 04:11:10;;;;;;;5.83;2.20;;;4.00;99.90;;;;;;5045505;28;20508;-73
2023/01/31 04:13:43;;;;;;;8.43;2.20;;;4.00;99.90;;;;;;5048323;28;20524;-72
2023/01/31 04:16:13;;;;;;;9.23;2.50;;;4.10;99.90;;;;;;5048893;28;20475;-72
2023/01/31 04:18:43;;;;;;;8.57;2.87;;;4.10;99.90;;;;;;5046710;28;20485;-72
2023/01/31 04:21:13;;;;;;;11.80;3.27;;;4.10;99.90;;;;;;5048608;28;20508;-72
2023/01/31 04:23:45;;;;;;;7.10;2.23;;;4.10;99.90;;;;;;5041382;28;20474;-73
2023/01/31 04:26:15;;;;;;;10.23;2.50;;;4.10;99.90;;;;;;5046551;28;20462;-73
2023/01/31 04:28:47;;;;;;;10.17;2.80;;;4.10;99.90;;;;;;5041782;28;20481;-73
2023/01/31 04:31:15;;;;;;;5.40;2.30;;;4.10;99.90;;;;;;5046723;28;20515;-72
2023/01/31 04:33:43;;;;;;;12.70;5.33;;;4.20;99.90;;;;;;5041714;28;20462;-73
2023/01/31 04:36:12;;;;;;;11.40;2.80;;;4.20;99.90;;;;;;5049083;28;20490;-72
2023/01/31 04:38:53;;;;;;;7.80;2.50;;;4.20;99.90;;;;;;5034377;28;20950;-73
2023/01/31 04:41:21;;;;;;;5.50;2.00;;;4.20;99.90;;;;;;5043165;28;20509;-73
2023/01/31 04:43:51;;;;;;;13.10;3.40;;;4.20;99.90;;;;;;5044728;28;20471;-73
2023/01/31 04:46:24;;;;;;;8.53;3.17;;;4.20;99.90;;;;;;5043690;28;20462;-73
2023/01/31 04:48:54;;;;;;;10.20;3.60;;;4.20;99.90;;;;;;5042401;28;20590;-72
2023/01/31 04:51:23;;;;;;;12.47;2.70;;;4.30;99.90;;;;;;5043450;28;20502;-72
2023/01/31 04:54:06;;;;;;;10.50;2.80;;;4.30;99.90;;;;;;5034293;28;20474;-72
2023/01/31 04:56:37;;;;;;;6.17;2.30;;;4.20;99.90;;;;;;5037192;28;20516;-73
2023/01/31 04:59:08;;;;;;;10.60;3.00;;;4.20;99.90;;;;;;5021634;28;20497;-75
2023/01/31 05:01:42;;;;;;;10.13;2.70;;;4.30;99.90;;;;;;5039308;28;20482;-74
2023/01/31 05:04:11;;;;;;;8.60;2.60;;;4.30;99.90;;;;;;5046707;28;20474;-73
2023/01/31 05:06:45;;;;;;;5.97;2.50;;;4.30;99.90;;;;;;5036901;28;20465;-75
2023/01/31 05:09:18;;;;;;;10.23;2.60;;;4.30;99.90;;;;;;5039100;28;20478;-73
2023/01/31 05:11:46;;;;;;;7.97;2.53;;;4.30;99.90;;;;;;5032952;28;20502;-76
2023/01/31 05:14:16;;;;;;;9.80;2.20;;;4.30;99.90;;;;;;5050116;28;20462;-74
2023/01/31 05:16:47;;;;;;;9.90;2.90;;;4.30;99.90;;;;;;5047839;28;20497;-74
2023/01/31 05:19:15;;;;;;;7.57;2.53;;;4.30;99.90;;;;;;5047505;28;20484;-74
2023/01/31 05:21:58;;;;;;;6.17;2.27;;;4.30;99.90;;;;;;5044623;28;20582;-74
2023/01/31 05:24:35;;;;;;;8.93;2.40;;;4.30;99.90;;;;;;5044542;28;20473;-75
2023/01/31 05:27:13;;;;;;;14.73;2.67;;;4.30;99.90;;;;;;5039570;28;20477;-75
2023/01/31 05:29:41;;;;;;;7.33;2.20;;;4.40;99.90;;;;;;5041170;28;20481;-73
2023/01/31 05:32:09;;;;;;;7.83;2.40;;;4.40;99.90;;;;;;5033587;28;20872;-74
2023/01/31 05:34:43;;;;;;;14.57;2.47;;;4.40;99.90;;;;;;5046352;28;20479;-73
2023/01/31 05:37:18;;;;;;;7.17;2.40;;;4.40;99.90;;;;;;5041934;28;20493;-74
2023/01/31 05:39:47;;;;;;;5.80;2.27;;;4.40;99.90;;;;;;5031176;28;20514;-75
2023/01/31 05:42:19;;;;;;;9.93;2.40;;;4.40;99.90;;;;;;5039621;28;20498;-74
2023/01/31 05:44:49;;;;;;;10.37;2.93;;;4.40;99.90;;;;;;5040743;28;20470;-73
2023/01/31 05:47:22;;;;;;;8.53;2.40;;;4.30;99.90;;;;;;5021954;28;20946;-74
2023/01/31 05:49:50;;;;;;;10.57;2.40;;;4.40;99.90;;;;;;5037872;28;20483;-73
2023/01/31 05:52:20;;;;;;;7.37;2.83;;;4.40;99.90;;;;;;5041483;28;20501;-73
2023/01/31 05:54:55;;;;;;;6.17;2.90;;;4.30;99.90;;;;;;5028520;28;20528;-74
2023/01/31 05:57:27;;;;;;;12.67;5.17;;;4.40;99.90;;;;;;5045684;28;20497;-73
2023/01/31 05:59:59;;;;;;;8.83;2.30;;;4.30;99.90;;;;;;5040501;28;20566;-75
2023/01/31 06:02:30;;;;;;;11.47;2.90;;;4.30;99.90;;;;;;5039824;28;20482;-73
2023/01/31 06:04:59;;;;;;;11.17;2.50;;;4.30;99.90;;;;;;5041779;28;20471;-73
2023/01/31 06:07:29;;;;;;;10.23;2.90;;;4.30;99.90;;;;;;5026589;28;20470;-74
2023/01/31 06:10:01;;;;;;;9.43;2.30;;;4.30;99.90;;;;;;5033842;28;21846;-73
2023/01/31 06:12:30;;;;;;;11.30;3.37;;;4.30;99.90;;;;;;5039011;28;20515;-74
2023/01/31 06:15:03;;;;;;;9.90;3.30;;;4.40;99.90;;;;;;5042892;28;20506;-74
2023/01/31 06:17:34;;;;;;;7.40;2.23;;;4.40;99.90;;;;;;5040215;28;20491;-73
2023/01/31 06:20:02;;;;;;;10.80;3.07;;;4.40;99.90;;;;;;5040861;28;21032;-73
2023/01/31 06:22:34;;;;;;;11.00;3.17;;;4.40;99.90;;;;;;5038360;28;20478;-73
2023/01/31 06:25:06;;;;;;;10.37;3.17;;;4.40;99.90;;;;;;5036194;28;20486;-74
2023/01/31 06:27:34;;;;;;;13.20;3.80;;;4.40;99.90;;;;;;5030639;28;20501;-76
2023/01/31 06:30:04;;;;;;;11.27;2.93;;;4.40;99.90;;;;;;5027409;28;21095;-74
2023/01/31 06:32:36;;;;;;;9.20;3.07;;;4.40;99.90;;;;;;5026552;28;20470;-74
2023/01/31 06:35:04;;;;;;;8.43;2.50;;;4.40;99.90;;;;;;5037692;28;20475;-74
2023/01/31 06:37:41;;;;;;;7.43;2.97;;;4.40;99.90;;;;;;5038786;28;20588;-74
2023/01/31 06:40:13;;;;;;;14.37;3.70;;;4.50;99.90;;;;;;5041907;28;20580;-74
2023/01/31 06:42:44;;;;;;;11.97;3.10;;;4.50;99.90;;;;;;5038676;28;20988;-74
2023/01/31 06:45:15;;;;;;;15.83;3.60;;;4.50;99.90;;;;;;5036998;28;20475;-74
2023/01/31 06:47:45;;;;;;;13.70;3.50;;;4.50;99.90;;;;;;5038208;28;20546;-74
2023/01/31 06:50:15;;;;;;;9.40;3.17;;;4.50;99.90;;;;;;5036227;28;20486;-74
2023/01/31 06:52:58;;;;;;;9.50;2.87;;;4.50;99.90;;;;;;5039768;28;20470;-74
2023/01/31 06:55:30;;;;;;;8.97;2.20;;;4.50;99.90;;;;;;5023248;28;21075;-74
2023/01/31 06:57:58;;;;;;;14.33;3.20;;;4.50;99.90;;;;;;5033348;28;20494;-74
2023/01/31 07:00:28;;;;;;;13.83;3.67;;;4.50;99.90;;;;;;5036073;28;20494;-74
2023/01/31 07:03:07;;;;;;;9.33;2.70;;;4.50;99.90;;;;;;5025628;28;20554;-74
2023/01/31 07:05:38;;;;;;;6.50;2.97;;;4.50;99.90;;;;;;5041253;28;20562;-74
2023/01/31 07:08:13;;;;;;;10.77;2.37;;;4.60;99.90;;;;;;5039986;28;20479;-74
2023/01/31 07:10:42;;;;;;;8.27;2.73;;;4.50;99.90;;;;;;5044517;28;20544;-74
2023/01/31 07:13:14;;;;;;;9.37;2.90;;;4.60;99.90;;;;;;5041281;28;20468;-74
2023/01/31 07:15:47;;;;;;;12.57;3.10;;;4.60;99.90;;;;;;5039946;28;20471;-74
2023/01/31 07:18:20;;;;;;;6.80;3.03;;;4.60;99.90;;;;;;5047591;28;20458;-75
2023/01/31 07:20:50;;;;;;;10.40;2.57;;;4.60;99.90;;;;;;5037889;28;20566;-74
2023/01/31 07:23:24;;;;;;;8.70;3.13;;;4.60;99.90;;;;;;5038389;28;20490;-74
2023/01/31 07:25:56;;;;;;;8.50;2.97;;;4.60;99.90;;;;;;5037417;28;20467;-74
2023/01/31 07:28:28;;;;;;;9.70;3.30;;;4.60;99.90;;;;;;5043097;28;20483;-74
2023/01/31 07:31:04;;;;;;;8.73;3.60;;;4.60;99.90;;;;;;5035910;28;20926;-74
2023/01/31 07:33:34;;;;;;;11.17;3.27;;;4.60;99.90;;;;;;5038456;28;20470;-73
2023/01/31 07:36:08;;;;;;;7.07;2.90;;;4.60;99.90;;;;;;5042652;28;20506;-73
2023/01/31 07:38:38;;;;;;;8.83;3.60;;;4.60;99.90;;;;;;5035339;28;20494;-73
2023/01/31 07:41:11;;;;;;;11.80;3.57;;;4.70;99.90;;;;;;5044406;28;20967;-73
2023/01/31 07:43:39;;;;;;;10.43;3.20;;;4.70;99.90;;;;;;5043826;28;20462;-74
2023/01/31 07:46:10;;;;;;;11.13;3.33;;;4.70;99.90;;;;;;5032897;28;20462;-73
2023/01/31 07:48:40;;;;;;;11.97;4.90;;;4.80;99.90;;;;;;5048278;28;20824;-73
2023/01/31 07:51:08;;;;;;;9.07;4.07;;;4.80;99.90;;;;;;5048369;28;20866;-73
2023/01/31 07:53:42;;;;;;;11.47;4.53;;;4.80;99.90;;;;;;5048621;28;20557;-72
2023/01/31 07:56:18;;;;;;;14.67;4.80;;;4.80;99.90;;;;;;5043116;28;20473;-72
2023/01/31 07:58:47;;;;;;;11.50;4.57;;;4.80;99.90;;;;;;5041662;28;20495;-73
2023/01/31 08:04:13;;;;;;;13.23;5.00;;;4.90;99.90;;;;;;5045099;28;20535;-72
2023/01/31 08:06:50;;;;;;;11.53;5.53;;;4.90;99.90;;;;;;5044861;28;20790;-73
2023/01/31 08:09:23;;;;;;;13.00;5.50;;;4.90;99.90;;;;;;5048853;28;20482;-73
2023/01/31 08:11:54;;;;;;;16.37;6.07;;;4.90;99.90;;;;;;5050971;28;20509;-71
2023/01/31 08:14:27;;;;;;;13.20;5.63;;;5.00;99.90;;;;;;5037092;28;20569;-71
2023/01/31 08:16:58;;;;;;;10.40;4.83;;;5.10;99.90;;;;;;5037071;28;20844;-71
2023/01/31 08:19:29;;;;;;;9.40;5.93;;;5.00;99.90;;;;;;5046427;28;20863;-72
2023/01/31 08:21:59;;;;;;;13.00;6.50;;;5.10;99.90;;;;;;5030832;28;21101;-71
2023/01/31 08:24:31;;;;;;;13.97;6.10;;;5.10;99.90;;;;;;5046024;28;20516;-71
2023/01/31 08:27:01;;;;;;;16.97;5.80;;;5.10;99.90;;;;;;5038429;28;20993;-71
2023/01/31 08:29:31;;;;;;;12.73;5.30;;;5.10;99.90;;;;;;5023847;28;21288;-72
2023/01/31 08:32:01;;;;;;;12.50;5.00;;;5.20;99.90;;;;;;5041246;28;20497;-71
2023/01/31 08:34:32;;;;;;;12.77;5.73;;;5.20;99.90;;;;;;5041550;28;20466;-72
2023/01/31 08:37:02;;;;;;;12.17;5.67;;;5.20;99.90;;;;;;5039361;28;21017;-72
2023/01/31 08:39:31;;;;;;;20.80;6.07;;;5.20;99.90;;;;;;5039170;28;20474;-71
2023/01/31 08:42:04;;;;;;;15.70;5.83;;;5.20;99.90;;;;;;5051228;28;20581;-71
2023/01/31 08:44:36;;;;;;;10.87;5.37;;;5.20;99.90;;;;;;5045999;28;20549;-72
2023/01/31 08:47:06;;;;;;;11.73;5.43;;;5.20;99.90;;;;;;5042227;28;20466;-72
2023/01/31 08:49:37;;;;;;;15.53;5.70;;;5.20;99.90;;;;;;5041687;28;20497;-72
2023/01/31 08:52:13;;;;;;;13.30;6.20;;;5.20;99.90;;;;;;5044267;28;21033;-72
2023/01/31 08:54:40;;;;;;;13.57;5.83;;;5.20;99.90;;;;;;5044814;28;20474;-72
2023/01/31 08:57:10;;;;;;;11.70;5.20;;;5.30;99.90;;;;;;5049214;28;20497;-72
2023/01/31 08:59:40;;;;;;;15.30;5.77;;;5.30;99.90;;;;;;5026717;28;20478;-71
2023/01/31 09:02:20;;;;;;;10.37;5.27;;;5.30;99.90;;;;;;5043065;28;20510;-72
2023/01/31 09:04:53;;;;;;;9.50;5.00;;;5.30;99.90;;;;;;5044581;28;20590;-72
2023/01/31 09:07:24;;;;;;;14.37;5.20;;;5.30;99.90;;;;;;5041929;28;20989;-72
2023/01/31 09:09:54;;;;;;;10.70;6.80;;;5.30;99.90;;;;;;5040269;28;20483;-71
2023/01/31 09:12:28;;;;;;;12.60;5.80;;;5.30;99.90;;;;;;5045468;28;20512;-71
2023/01/31 09:14:59;;;;;;;18.80;6.40;;;5.30;99.90;;;;;;5041332;28;20474;-72
2023/01/31 09:17:29;;;;;;;14.60;6.27;;;5.30;99.90;;;;;;5049866;28;21073;-72
2023/01/31 09:19:57;;;;;;;10.47;5.70;;;5.30;99.90;;;;;;5047402;28;20486;-72
2023/01/31 09:22:34;;;;;;;13.60;6.37;;;5.30;99.90;;;;;;5044792;28;20549;-73
2023/01/31 09:25:12;;;;;;;9.30;5.90;;;5.40;99.90;;;;;;5042674;28;20505;-72
2023/01/31 09:27:44;;;;;;;12.27;6.43;;;5.40;99.90;;;;;;5041320;28;20849;-71
2023/01/31 09:30:15;;;;;;;13.37;6.23;;;5.40;99.90;;;;;;5037514;28;20518;-71
2023/01/31 09:32:52;;;;;;;12.10;5.80;;;5.40;99.90;;;;;;5047245;28;20469;-71
2023/01/31 09:35:22;;;;;;;12.43;5.80;;;5.40;99.90;;;;;;5042326;28;20534;-73
2023/01/31 09:37:55;;;;;;;11.40;6.20;;;5.40;99.90;;;;;;5042698;28;20487;-70
2023/01/31 09:40:34;;;;;;;11.47;5.97;;;5.40;99.90;;;;;;5043359;28;20888;-71
2023/01/31 09:43:13;;;;;;;10.03;5.80;;;5.40;99.90;;;;;;5047712;28;20465;-72
2023/01/31 09:45:45;;;;;;;13.30;6.30;;;5.50;99.90;;;;;;5033782;28;20467;-71
2023/01/31 09:48:22;;;;;;;14.30;6.13;;;5.40;99.90;;;;;;5049649;28;21059;-71
2023/01/31 09:50:57;;;;;;;10.00;5.20;;;5.50;99.90;;;;;;5047909;28;20490;-71
2023/01/31 09:53:36;;;;;;;10.37;5.63;;;5.40;99.90;;;;;;5051699;28;21022;-71
2023/01/31 09:56:24;;;;;;;10.43;5.37;;;5.40;99.90;;;;;;5046750;28;20565;-71
2023/01/31 09:59:09;;;;;;;9.43;6.20;;;5.40;99.90;;;;;;5042202;28;20543;-72
2023/01/31 10:01:55;;;;;;;8.47;6.10;;;5.40;99.90;;;;;;5045917;28;20486;-72
2023/01/31 10:04:49;;;;;;;10.10;6.40;;;5.40;99.90;;;;;;5045312;28;20486;-72
2023/01/31 10:07:24;;;;;;;12.67;6.70;;;5.40;99.90;;;;;;5039831;28;20557;-72
2023/01/31 10:10:06;;;;;;;12.73;6.10;;;5.40;99.90;;;;;;5049178;28;21075;-72
2023/01/31 10:12:42;;;;;;;9.20;6.40;;;5.40;99.90;;;;;;5048323;28;20497;-72
2023/01/31 10:15:31;;;;;;;7.57;5.90;;;5.40;99.90;;;;;;5036960;28;20470;-73
2023/01/31 10:18:02;;;;;;;9.00;6.00;;;5.40;99.90;;;;;;5039397;28;20502;-72
2023/01/31 10:20:39;;;;;;;12.13;6.77;;;5.40;99.90;;;;;;5038264;28;20521;-72
2023/01/31 10:23:13;;;;;;;12.47;6.87;;;5.40;99.90;;;;;;5041197;28;20490;-72
2023/01/31 10:25:52;;;;;;;8.77;6.70;;;5.50;99.90;;;;;;5044802;28;20466;-72
2023/01/31 10:28:25;;;;;;;11.63;6.60;;;5.50;99.90;;;;;;5047357;28;20482;-72
2023/01/31 10:31:06;;;;;;;15.83;8.80;;;5.50;99.90;;;;;;5032001;28;20474;-72
2023/01/31 10:33:42;;;;;;;9.40;6.33;;;5.50;99.90;;;;;;5039984;28;20470;-72
2023/01/31 10:36:17;;;;;;;8.60;6.73;;;5.50;99.90;;;;;;5050906;28;20473;-72
2023/01/31 10:38:59;;;;;;;10.10;6.93;;;5.50;99.90;;;;;;5050391;28;20491;-72
2023/01/31 10:41:45;;;;;;;8.00;6.20;;;5.50;99.90;;;;;;5061114;28;20482;-72
2023/01/31 10:44:22;;;;;;;11.97;6.90;;;5.50;99.90;;;;;;5055355;28;20470;-72
2023/01/31 10:46:56;;;;;;;8.30;6.47;;;5.60;99.90;;;;;;5050239;28;20531;-72
2023/01/31 10:49:25;;;;;;;12.07;7.17;;;5.60;99.90;;;;;;5038470;28;20486;-72
2023/01/31 10:52:13;;;;;;;9.93;7.13;;;5.60;99.90;;;;;;5041775;28;20516;-72
2023/01/31 10:55:01;;;;;;;8.60;7.20;;;5.70;99.90;;;;;;5041585;28;20874;-72
2023/01/31 10:57:35;;;;;;;13.43;6.60;;;5.60;99.90;;;;;;5045194;28;20477;-72
2023/01/31 11:00:13;;;;;;;10.33;7.23;;;5.60;99.90;;;;;;5041346;28;20992;-72
2023/01/31 11:02:47;;;;;;;9.50;6.73;;;5.70;99.90;;;;;;5040009;28;20474;-71
2023/01/31 11:05:23;;;;;;;16.13;7.30;;;5.70;99.90;;;;;;5043428;28;20472;-72
2023/01/31 11:07:51;;;;;;;13.03;7.00;;;5.70;99.90;;;;;;5029249;28;22212;-71
2023/01/31 11:10:32;;;;;;;12.70;6.70;;;5.70;99.90;;;;;;5040473;28;20853;-73
2023/01/31 11:13:08;;;;;;;10.30;7.00;;;5.70;99.90;;;;;;5048287;28;20482;-72
2023/01/31 11:15:42;;;;;;;10.57;7.10;;;5.70;99.90;;;;;;5043278;28;20531;-72
2023/01/31 11:18:25;;;;;;;8.13;6.50;;;5.80;99.90;;;;;;5031667;28;20478;-72
2023/01/31 11:20:55;;;;;;;11.73;7.40;;;5.80;99.90;;;;;;5038221;28;20492;-72
2023/01/31 11:23:30;;;;;;;8.13;6.00;;;5.80;99.90;;;;;;5046658;28;20473;-72
2023/01/31 11:26:05;;;;;;;10.73;6.50;;;5.80;99.90;;;;;;5046277;28;20474;-72
2023/01/31 11:28:39;;;;;;;13.13;7.87;;;5.90;99.90;;;;;;5045408;28;20501;-72
2023/01/31 11:31:17;;;;;;;8.83;6.47;;;5.90;99.90;;;;;;5040404;28;20529;-72
2023/01/31 11:33:57;;;;;;;10.70;6.33;;;5.90;99.90;;;;;;5040398;28;21263;-71
2023/01/31 11:36:25;;;;;;;8.00;5.80;;;5.90;99.90;;;;;;5039233;28;20860;-73
2023/01/31 11:38:56;;;;;;;9.20;6.23;;;6.00;99.90;;;;;;5040681;28;20478;-71
2023/01/31 11:41:31;;;;;;;8.33;5.40;;;6.00;99.90;;;;;;5045344;28;20494;-71
2023/01/31 11:44:14;;;;;;;6.30;5.33;;;6.00;99.90;;;;;;5044163;28;20553;-71
2023/01/31 11:46:55;;;;;;;6.57;5.00;;;6.00;99.90;;;;;;5031975;28;20474;-71
2023/01/31 11:49:43;;;;;;;7.83;5.10;;;6.00;99.90;;;;;;5044829;28;21084;-71
2023/01/31 11:52:15;;;;;;;6.17;4.60;;;6.00;99.90;;;;;;5039923;28;20490;-71
2023/01/31 11:55:00;;;;;;;7.13;4.83;;;6.10;99.90;;;;;;5043111;28;20496;-71
2023/01/31 11:57:33;;;;;;;9.80;5.77;;;6.10;99.90;;;;;;5047588;28;20477;-71
2023/01/31 12:00:06;;;;;;;7.43;4.53;;;6.10;99.90;;;;;;5045560;28;20485;-71
2023/01/31 12:02:45;;;;;;;7.20;4.50;;;6.10;99.90;;;;;;5029812;28;20470;-71
2023/01/31 12:05:19;;;;;;;4.67;4.03;;;6.20;99.90;;;;;;5043422;28;20553;-71
2023/01/31 12:07:56;;;;;;;4.53;4.13;;;6.20;99.90;;;;;;5049487;28;20466;-71
2023/01/31 12:10:35;;;;;;;5.53;4.40;;;6.20;99.90;;;;;;5043291;28;20513;-71
2023/01/31 12:13:21;;;;;;;8.07;4.10;;;6.20;99.90;;;;;;5043906;28;20474;-72
2023/01/31 12:15:57;;;;;;;7.60;3.83;;;6.20;99.90;;;;;;5042210;28;20474;-73
2023/01/31 12:18:49;;;;;;;4.60;3.43;;;6.20;99.90;;;;;;5036966;28;20481;-74
2023/01/31 12:21:40;;;;;;;3.63;3.20;;;6.20;99.90;;;;;;5035321;28;20505;-72
2023/01/31 12:24:18;;;;;;;6.50;3.40;;;6.30;99.90;;;;;;5034352;28;21025;-72
2023/01/31 12:26:53;;;;;;;3.67;3.10;;;6.30;99.90;;;;;;5036942;28;20470;-73
2023/01/31 12:29:43;;;;;;;3.90;2.73;;;6.30;99.90;;;;;;5025374;28;21465;-75
2023/01/31 12:32:35;;;;;;;3.00;2.63;;;6.30;99.90;;;;;;5035991;28;20490;-72
2023/01/31 12:35:21;;;;;;;3.00;2.47;;;6.30;99.90;;;;;;5043056;28;20474;-73
2023/01/31 12:38:07;;;;;;;3.70;2.60;;;6.30;99.90;;;;;;5043566;28;20469;-71
2023/01/31 12:40:40;;;;;;;5.03;2.50;;;6.40;99.90;;;;;;5046932;28;20847;-72
2023/01/31 12:43:26;;;;;;;2.60;2.40;;;6.40;99.90;;;;;;5034527;28;20485;-73
2023/01/31 12:46:08;;;;;;;2.60;2.40;;;6.50;99.90;;;;;;5036177;28;20462;-72
2023/01/31 12:49:09;;;;;;;2.17;1.90;;;6.50;99.90;;;;;;5049006;28;20478;-71
2023/01/31 12:51:48;;;;;;;2.10;1.80;;;6.50;99.90;;;;;;5038048;28;20537;-74
2023/01/31 12:54:32;;;;;;;3.30;2.00;;;6.50;99.90;;;;;;5042246;28;20968;-72
2023/01/31 12:57:23;;;;;;;1.87;1.73;;;6.50;99.90;;;;;;5044881;28;20484;-73
2023/01/31 13:00:01;;;;;;;2.67;1.83;;;6.50;99.90;;;;;;5040325;28;20490;-72
2023/01/31 13:02:46;;;;;;;2.47;1.90;;;6.60;99.90;;;;;;5039952;28;20466;-72
2023/01/31 13:05:28;;;;;;;2.77;1.80;;;6.60;99.90;;;;;;5041870;28;20466;-72
2023/01/31 13:08:01;;;;;;;1.57;1.47;;;6.70;99.90;;;;;;5040697;28;20467;-72
2023/01/31 13:10:38;;;;;;;1.60;1.50;;;6.70;99.90;;;;;;5039024;28;20485;-72
2023/01/31 13:13:21;;;;;;;2.60;1.87;;;6.70;99.90;;;;;;5036805;28;20466;-71
2023/01/31 13:15:54;;;;;;;2.73;1.50;;;6.80;99.90;;;;;;5038446;28;20471;-72
2023/01/31 13:18:31;;;;;;;3.40;1.80;;;6.80;99.90;;;;;;5042126;28;21002;-72
2023/01/31 13:21:06;;;;;;;1.73;1.60;;;6.80;99.90;;;;;;5031393;28;20494;-71
2023/01/31 13:23:39;;;;;;;2.20;1.77;;;6.80;99.90;;;;;;5030585;28;20474;-71
2023/01/31 13:26:22;;;;;;;3.00;2.10;;;6.80;99.90;;;;;;5030756;28;20501;-71
2023/01/31 13:28:56;;;;;;;3.60;2.27;;;6.80;99.90;;;;;;5036964;28;21024;-72
2023/01/31 13:31:28;;;;;;;3.00;2.60;;;6.80;99.90;;;;;;5025577;28;20960;-72
2023/01/31 13:34:11;;;;;;;4.20;2.37;;;6.80;99.90;;;;;;5036986;28;20470;-71
2023/01/31 13:36:45;;;;;;;2.40;2.20;;;6.90;99.90;;;;;;5041422;28;20477;-72
2023/01/31 13:39:22;;;;;;;3.83;2.13;;;7.00;99.90;;;;;;5044448;28;20486;-74
2023/01/31 13:41:52;;;;;;;5.57;2.43;;;7.10;99.90;;;;;;5042368;28;21172;-72
2023/01/31 13:44:26;;;;;;;3.57;2.53;;;7.20;99.90;;;;;;5031486;28;20466;-72
2023/01/31 13:47:01;;;;;;;5.57;2.70;;;7.20;99.90;;;;;;5042932;28;20471;-72